sensor_id;sensor_type;location;lat;lon;timestamp;pressure;altitude;pressure_sealevel;temperature;humidity
57574;BME280;43409;48.858;21.906;2022-08-01T00:00:11;98230.06;;;25.55;45.70
57574;BME280;43409;48.858;21.906;2022-08-01T00:02:37;98224.97;;;25.54;45.89
57574;BME280;43409;48.858;21.906;2022-08-01T00:05:04;98240.28;;;25.53;45.79
57574;BME280;43409;48.858;21.906;2022-08-01T00:07:33;98229.31;;;25.50;45.91
57574;BME280;43409;48.858;21.906;2022-08-01T00:09:58;98233.69;;;25.46;46.22
57574;BME280;43409;48.858;21.906;2022-08-01T00:12:24;98231.72;;;25.51;45.87
57574;BME280;43409;48.858;21.906;2022-08-01T00:14:49;98226.34;;;25.51;45.97
57574;BME280;43409;48.858;21.906;2022-08-01T00:17:15;98222.88;;;25.51;45.94
57574;BME280;43409;48.858;21.906;2022-08-01T00:19:40;98225.09;;;25.44;46.28
57574;BME280;43409;48.858;21.906;2022-08-01T00:22:06;98221.41;;;25.40;46.34
57574;BME280;43409;48.858;21.906;2022-08-01T00:24:31;98226.53;;;25.36;46.31
57574;BME280;43409;48.858;21.906;2022-08-01T00:26:57;98231.31;;;25.39;46.25
57574;BME280;43409;48.858;21.906;2022-08-01T00:29:22;98226.53;;;25.36;46.53
57574;BME280;43409;48.858;21.906;2022-08-01T00:31:47;98219.28;;;25.36;46.58
57574;BME280;43409;48.858;21.906;2022-08-01T00:34:13;98226.19;;;25.43;46.40
57574;BME280;43409;48.858;21.906;2022-08-01T00:36:38;98219.50;;;25.40;46.30
57574;BME280;43409;48.858;21.906;2022-08-01T00:39:04;98221.41;;;25.40;46.23
57574;BME280;43409;48.858;21.906;2022-08-01T00:41:29;98229.16;;;25.41;46.29
57574;BME280;43409;48.858;21.906;2022-08-01T00:43:55;98223.25;;;25.39;46.34
57574;BME280;43409;48.858;21.906;2022-08-01T00:46:20;98223.56;;;25.37;46.30
57574;BME280;43409;48.858;21.906;2022-08-01T00:48:46;98228.88;;;25.43;46.18
57574;BME280;43409;48.858;21.906;2022-08-01T00:51:11;98219.50;;;25.40;46.22
57574;BME280;43409;48.858;21.906;2022-08-01T00:53:38;98222.66;;;25.47;46.08
57574;BME280;43409;48.858;21.906;2022-08-01T00:56:04;98231.00;;;25.46;46.27
57574;BME280;43409;48.858;21.906;2022-08-01T00:58:30;98227.50;;;25.45;46.21
57574;BME280;43409;48.858;21.906;2022-08-01T01:00:58;98225.34;;;25.47;46.14
57574;BME280;43409;48.858;21.906;2022-08-01T01:03:23;98226.13;;;25.48;45.96
57574;BME280;43409;48.858;21.906;2022-08-01T01:06:07;98230.13;;;25.50;45.92
57574;BME280;43409;48.858;21.906;2022-08-01T01:08:43;98222.28;;;25.54;46.01
57574;BME280;43409;48.858;21.906;2022-08-01T01:11:20;98216.19;;;25.48;46.01
57574;BME280;43409;48.858;21.906;2022-08-01T01:13:52;98210.22;;;25.51;45.91
57574;BME280;43409;48.858;21.906;2022-08-01T01:16:21;98210.81;;;25.48;45.89
57574;BME280;43409;48.858;21.906;2022-08-01T01:18:49;98211.09;;;25.47;45.96
57574;BME280;43409;48.858;21.906;2022-08-01T01:27:21;98205.69;;;25.52;45.49
57574;BME280;43409;48.858;21.906;2022-08-01T01:29:54;98208.88;;;25.54;45.48
57574;BME280;43409;48.858;21.906;2022-08-01T01:32:31;98209.06;;;25.58;45.26
57574;BME280;43409;48.858;21.906;2022-08-01T01:35:02;98198.13;;;25.54;45.48
57574;BME280;43409;48.858;21.906;2022-08-01T01:37:31;98201.31;;;25.56;45.28
57574;BME280;43409;48.858;21.906;2022-08-01T01:39:59;98206.47;;;25.52;45.58
57574;BME280;43409;48.858;21.906;2022-08-01T01:42:26;98197.91;;;25.50;45.59
57574;BME280;43409;48.858;21.906;2022-08-01T01:44:53;98201.69;;;25.49;45.57
57574;BME280;43409;48.858;21.906;2022-08-01T01:47:20;98198.50;;;25.47;45.24
57574;BME280;43409;48.858;21.906;2022-08-01T01:49:47;98198.69;;;25.51;45.41
57574;BME280;43409;48.858;21.906;2022-08-01T01:52:15;98205.97;;;25.50;45.47
57574;BME280;43409;48.858;21.906;2022-08-01T01:54:45;98197.75;;;25.42;45.40
57574;BME280;43409;48.858;21.906;2022-08-01T01:57:12;98206.19;;;25.54;45.27
57574;BME280;43409;48.858;21.906;2022-08-01T01:59:40;98198.91;;;25.54;45.20
57574;BME280;43409;48.858;21.906;2022-08-01T02:02:07;98193.34;;;25.51;45.43
57574;BME280;43409;48.858;21.906;2022-08-01T02:04:40;98203.28;;;25.50;45.41
57574;BME280;43409;48.858;21.906;2022-08-01T02:07:09;98208.19;;;25.43;45.78
57574;BME280;43409;48.858;21.906;2022-08-01T02:09:35;98197.91;;;25.50;45.73
57574;BME280;43409;48.858;21.906;2022-08-01T02:12:03;98203.97;;;25.37;46.17
57574;BME280;43409;48.858;21.906;2022-08-01T02:14:33;98200.78;;;25.35;46.21
57574;BME280;43409;48.858;21.906;2022-08-01T02:17:02;98204.88;;;25.27;46.46
57574;BME280;43409;48.858;21.906;2022-08-01T02:19:29;98200.19;;;25.14;47.04
57574;BME280;43409;48.858;21.906;2022-08-01T02:22:02;98204.06;;;25.27;46.77
57574;BME280;43409;48.858;21.906;2022-08-01T02:27:24;98213.69;;;25.33;46.66
57574;BME280;43409;48.858;21.906;2022-08-01T02:29:53;98208.78;;;25.40;46.59
57574;BME280;43409;48.858;21.906;2022-08-01T02:32:26;98210.66;;;25.40;46.48
57574;BME280;43409;48.858;21.906;2022-08-01T02:34:56;98210.59;;;25.45;46.44
57574;BME280;43409;48.858;21.906;2022-08-01T02:37:24;98213.56;;;25.43;46.34
57574;BME280;43409;48.858;21.906;2022-08-01T02:39:52;98219.56;;;25.35;46.79
57574;BME280;43409;48.858;21.906;2022-08-01T02:42:20;98220.59;;;25.39;46.54
57574;BME280;43409;48.858;21.906;2022-08-01T02:44:48;98223.22;;;25.44;46.53
57574;BME280;43409;48.858;21.906;2022-08-01T02:47:15;98220.75;;;25.48;46.24
57574;BME280;43409;48.858;21.906;2022-08-01T02:49:45;98219.63;;;25.30;46.80
57574;BME280;43409;48.858;21.906;2022-08-01T02:52:14;98221.69;;;25.38;46.75
57574;BME280;43409;48.858;21.906;2022-08-01T02:54:43;98214.13;;;25.40;46.41
57574;BME280;43409;48.858;21.906;2022-08-01T02:57:11;98212.09;;;25.32;46.65
57574;BME280;43409;48.858;21.906;2022-08-01T02:59:38;98214.34;;;25.44;46.59
57574;BME280;43409;48.858;21.906;2022-08-01T03:02:05;98217.00;;;25.49;46.39
57574;BME280;43409;48.858;21.906;2022-08-01T03:04:34;98217.22;;;25.52;46.31
57574;BME280;43409;48.858;21.906;2022-08-01T03:07:02;98214.53;;;25.52;46.05
57574;BME280;43409;48.858;21.906;2022-08-01T03:09:29;98225.91;;;25.44;46.58
57574;BME280;43409;48.858;21.906;2022-08-01T03:11:59;98220.06;;;25.37;46.74
57574;BME280;43409;48.858;21.906;2022-08-01T03:14:26;98216.81;;;25.40;46.64
57574;BME280;43409;48.858;21.906;2022-08-01T03:16:54;98220.25;;;25.46;46.76
57574;BME280;43409;48.858;21.906;2022-08-01T03:19:23;98217.91;;;25.39;47.25
57574;BME280;43409;48.858;21.906;2022-08-01T03:21:49;98223.72;;;25.46;46.45
57574;BME280;43409;48.858;21.906;2022-08-01T03:24:16;98221.69;;;25.38;46.86
57574;BME280;43409;48.858;21.906;2022-08-01T03:26:43;98215.78;;;25.36;47.04
57574;BME280;43409;48.858;21.906;2022-08-01T03:29:16;98224.44;;;25.28;47.59
57574;BME280;43409;48.858;21.906;2022-08-01T03:31:44;98224.13;;;25.34;47.46
57574;BME280;43409;48.858;21.906;2022-08-01T03:34:10;98232.47;;;25.33;47.47
57574;BME280;43409;48.858;21.906;2022-08-01T03:39:31;98230.72;;;25.18;48.15
57574;BME280;43409;48.858;21.906;2022-08-01T03:42:07;98232.28;;;25.24;47.95
57574;BME280;43409;48.858;21.906;2022-08-01T03:44:35;98235.91;;;25.09;48.46
57574;BME280;43409;48.858;21.906;2022-08-01T03:47:06;98242.75;;;25.20;48.30
57574;BME280;43409;48.858;21.906;2022-08-01T03:49:35;98244.38;;;25.22;48.23
57574;BME280;43409;48.858;21.906;2022-08-01T03:52:04;98240.56;;;25.28;48.20
57574;BME280;43409;48.858;21.906;2022-08-01T03:54:34;98241.09;;;25.30;48.07
57574;BME280;43409;48.858;21.906;2022-08-01T03:57:01;98250.38;;;25.37;47.80
57574;BME280;43409;48.858;21.906;2022-08-01T03:59:28;98255.91;;;25.22;48.39
57574;BME280;43409;48.858;21.906;2022-08-01T04:01:55;98256.19;;;25.20;48.46
57574;BME280;43409;48.858;21.906;2022-08-01T04:04:21;98261.47;;;25.31;48.14
57574;BME280;43409;48.858;21.906;2022-08-01T04:06:47;98256.78;;;25.42;47.86
57574;BME280;43409;48.858;21.906;2022-08-01T04:09:16;98262.81;;;25.33;48.06
57574;BME280;43409;48.858;21.906;2022-08-01T04:11:41;98256.88;;;25.36;48.16
57574;BME280;43409;48.858;21.906;2022-08-01T04:14:07;98264.09;;;25.36;48.28
57574;BME280;43409;48.858;21.906;2022-08-01T04:16:33;98258.13;;;25.44;47.88
57574;BME280;43409;48.858;21.906;2022-08-01T04:18:59;98257.72;;;25.27;48.28
57574;BME280;43409;48.858;21.906;2022-08-01T04:21:26;98263.09;;;25.27;48.39
57574;BME280;43409;48.858;21.906;2022-08-01T04:24:01;98266.34;;;25.29;48.21
57574;BME280;43409;48.858;21.906;2022-08-01T04:26:32;98262.81;;;25.28;48.58
57574;BME280;43409;48.858;21.906;2022-08-01T04:28:58;98268.75;;;25.25;48.54
57574;BME280;43409;48.858;21.906;2022-08-01T04:31:25;98260.84;;;25.39;48.02
57574;BME280;43409;48.858;21.906;2022-08-01T04:33:54;98268.03;;;25.44;48.14
57574;BME280;43409;48.858;21.906;2022-08-01T04:36:22;98265.06;;;25.45;47.92
57574;BME280;43409;48.858;21.906;2022-08-01T04:38:51;98262.56;;;25.30;48.45
57574;BME280;43409;48.858;21.906;2022-08-01T04:41:18;98254.47;;;25.35;48.44
57574;BME280;43409;48.858;21.906;2022-08-01T04:43:45;98254.91;;;25.42;48.20
57574;BME280;43409;48.858;21.906;2022-08-01T04:46:12;98258.16;;;25.39;48.16
57574;BME280;43409;48.858;21.906;2022-08-01T04:48:39;98272.22;;;25.31;48.89
57574;BME280;43409;48.858;21.906;2022-08-01T04:51:11;98258.16;;;25.39;48.55
57574;BME280;43409;48.858;21.906;2022-08-01T04:53:37;98257.19;;;25.30;49.01
57574;BME280;43409;48.858;21.906;2022-08-01T04:56:03;98264.38;;;25.34;48.68
57574;BME280;43409;48.858;21.906;2022-08-01T04:58:28;98258.22;;;25.34;48.89
57574;BME280;43409;48.858;21.906;2022-08-01T05:00:53;98250.69;;;25.36;48.59
57574;BME280;43409;48.858;21.906;2022-08-01T05:03:19;98255.78;;;25.08;49.62
57574;BME280;43409;48.858;21.906;2022-08-01T05:05:44;98256.84;;;23.23;56.48
57574;BME280;43409;48.858;21.906;2022-08-01T05:08:10;98273.16;;;23.06;58.79
57574;BME280;43409;48.858;21.906;2022-08-01T05:10:35;98252.34;;;22.93;60.03
57574;BME280;43409;48.858;21.906;2022-08-01T05:13:02;98252.31;;;23.23;58.35
57574;BME280;43409;48.858;21.906;2022-08-01T05:15:27;98248.84;;;23.18;59.32
57574;BME280;43409;48.858;21.906;2022-08-01T05:17:52;98246.69;;;23.20;58.66
57574;BME280;43409;48.858;21.906;2022-08-01T05:20:18;98255.22;;;23.32;58.41
57574;BME280;43409;48.858;21.906;2022-08-01T05:22:43;98259.78;;;23.32;58.59
57574;BME280;43409;48.858;21.906;2022-08-01T05:25:08;98255.53;;;23.20;58.70
57574;BME280;43409;48.858;21.906;2022-08-01T05:27:34;98249.63;;;23.18;58.78
57574;BME280;43409;48.858;21.906;2022-08-01T05:30:06;98255.53;;;23.05;58.85
57574;BME280;43409;48.858;21.906;2022-08-01T05:32:32;98251.78;;;23.06;58.76
57574;BME280;43409;48.858;21.906;2022-08-01T05:34:57;98261.19;;;22.88;59.02
57574;BME280;43409;48.858;21.906;2022-08-01T05:37:23;98262.25;;;22.71;59.69
57574;BME280;43409;48.858;21.906;2022-08-01T05:39:48;98262.50;;;22.91;59.45
57574;BME280;43409;48.858;21.906;2022-08-01T05:42:14;98265.16;;;22.91;59.48
57574;BME280;43409;48.858;21.906;2022-08-01T05:44:39;98264.63;;;22.94;59.35
57574;BME280;43409;48.858;21.906;2022-08-01T05:47:04;98272.38;;;22.95;58.89
57574;BME280;43409;48.858;21.906;2022-08-01T05:49:30;98267.03;;;22.90;58.94
57574;BME280;43409;48.858;21.906;2022-08-01T05:51:55;98275.06;;;22.80;59.39
57574;BME280;43409;48.858;21.906;2022-08-01T05:54:21;98261.16;;;22.83;59.06
57574;BME280;43409;48.858;21.906;2022-08-01T05:56:46;98274.78;;;23.07;58.24
57574;BME280;43409;48.858;21.906;2022-08-01T05:59:11;98269.44;;;23.02;58.49
57574;BME280;43409;48.858;21.906;2022-08-01T06:01:37;98262.75;;;23.20;55.98
57574;BME280;43409;48.858;21.906;2022-08-01T06:04:02;98273.13;;;23.47;54.53
57574;BME280;43409;48.858;21.906;2022-08-01T06:06:28;98272.25;;;23.57;53.75
57574;BME280;43409;48.858;21.906;2022-08-01T06:08:53;98276.84;;;23.46;53.77
57574;BME280;43409;48.858;21.906;2022-08-01T06:11:18;98286.56;;;23.01;56.85
57574;BME280;43409;48.858;21.906;2022-08-01T06:13:44;98293.25;;;23.14;57.61
57574;BME280;43409;48.858;21.906;2022-08-01T06:16:09;98289.50;;;23.20;58.26
57574;BME280;43409;48.858;21.906;2022-08-01T06:18:35;98297.53;;;23.25;58.11
57574;BME280;43409;48.858;21.906;2022-08-01T06:21:00;98295.63;;;23.31;58.34
57574;BME280;43409;48.858;21.906;2022-08-01T06:23:25;98296.34;;;23.57;57.28
57574;BME280;43409;48.858;21.906;2022-08-01T06:25:54;98299.63;;;23.44;57.08
57574;BME280;43409;48.858;21.906;2022-08-01T06:28:20;98300.22;;;23.10;57.91
57574;BME280;43409;48.858;21.906;2022-08-01T06:30:46;98299.66;;;23.18;57.43
57574;BME280;43409;48.858;21.906;2022-08-01T06:33:11;98296.72;;;23.04;57.34
57574;BME280;43409;48.858;21.906;2022-08-01T06:35:37;98298.56;;;23.29;57.28
57574;BME280;43409;48.858;21.906;2022-08-01T06:38:02;98298.28;;;23.31;57.01
57574;BME280;43409;48.858;21.906;2022-08-01T06:40:28;98296.97;;;23.23;57.57
57574;BME280;43409;48.858;21.906;2022-08-01T06:42:53;98293.19;;;23.39;57.00
57574;BME280;43409;48.858;21.906;2022-08-01T06:45:18;98294.44;;;23.68;56.11
57574;BME280;43409;48.858;21.906;2022-08-01T06:47:47;98296.72;;;23.30;57.92
57574;BME280;43409;48.858;21.906;2022-08-01T06:50:13;98297.53;;;22.84;59.18
57574;BME280;43409;48.858;21.906;2022-08-01T06:52:40;98298.06;;;23.17;57.84
57574;BME280;43409;48.858;21.906;2022-08-01T06:55:05;98293.75;;;23.31;56.91
57574;BME280;43409;48.858;21.906;2022-08-01T06:57:31;98304.66;;;23.60;54.93
57574;BME280;43409;48.858;21.906;2022-08-01T06:59:56;98311.72;;;23.20;57.23
57574;BME280;43409;48.858;21.906;2022-08-01T07:02:23;98318.34;;;23.44;56.58
57574;BME280;43409;48.858;21.906;2022-08-01T07:04:48;98313.81;;;23.29;56.40
57574;BME280;43409;48.858;21.906;2022-08-01T07:07:13;98312.50;;;23.05;56.73
57574;BME280;43409;48.858;21.906;2022-08-01T07:09:39;98307.41;;;23.24;55.86
57574;BME280;43409;48.858;21.906;2022-08-01T07:12:08;98308.13;;;23.61;54.76
57574;BME280;43409;48.858;21.906;2022-08-01T07:14:34;98312.66;;;23.66;54.19
57574;BME280;43409;48.858;21.906;2022-08-01T07:16:59;98315.59;;;23.69;52.69
57574;BME280;43409;48.858;21.906;2022-08-01T07:19:25;98320.47;;;23.52;51.89
57574;BME280;43409;48.858;21.906;2022-08-01T07:21:51;98310.22;;;23.69;51.56
57574;BME280;43409;48.858;21.906;2022-08-01T07:24:17;98326.03;;;23.66;51.07
57574;BME280;43409;48.858;21.906;2022-08-01T07:26:44;98325.22;;;23.70;51.11
57574;BME280;43409;48.858;21.906;2022-08-01T07:29:10;98329.25;;;23.68;50.91
57574;BME280;43409;48.858;21.906;2022-08-01T07:31:36;98338.13;;;23.53;50.90
57574;BME280;43409;48.858;21.906;2022-08-01T07:34:01;98335.75;;;23.15;51.40
57574;BME280;43409;48.858;21.906;2022-08-01T07:36:27;98340.28;;;23.46;51.01
57574;BME280;43409;48.858;21.906;2022-08-01T07:38:52;98334.84;;;23.87;50.10
57574;BME280;43409;48.858;21.906;2022-08-01T07:41:17;98338.53;;;24.01;50.05
57574;BME280;43409;48.858;21.906;2022-08-01T07:43:43;98337.13;;;24.14;49.47
57574;BME280;43409;48.858;21.906;2022-08-01T07:46:08;98340.81;;;24.28;49.06
57574;BME280;43409;48.858;21.906;2022-08-01T07:48:34;98338.91;;;24.34;48.94
57574;BME280;43409;48.858;21.906;2022-08-01T07:50:59;98331.91;;;24.38;48.87
57574;BME280;43409;48.858;21.906;2022-08-01T07:53:25;98336.22;;;24.39;49.03
57574;BME280;43409;48.858;21.906;2022-08-01T07:55:51;98339.34;;;24.46;48.92
57574;BME280;43409;48.858;21.906;2022-08-01T07:58:16;98333.25;;;24.36;48.86
57574;BME280;43409;48.858;21.906;2022-08-01T08:00:42;98324.44;;;24.35;49.16
57574;BME280;43409;48.858;21.906;2022-08-01T08:03:08;98331.84;;;24.48;48.80
57574;BME280;43409;48.858;21.906;2022-08-01T08:05:34;98334.00;;;24.46;48.83
57574;BME280;43409;48.858;21.906;2022-08-01T08:08:04;98333.97;;;24.52;48.81
57574;BME280;43409;48.858;21.906;2022-08-01T08:10:30;98342.75;;;24.67;48.46
57574;BME280;43409;48.858;21.906;2022-08-01T08:12:55;98341.88;;;24.77;48.44
57574;BME280;43409;48.858;21.906;2022-08-01T08:15:21;98333.81;;;24.82;48.05
57574;BME280;43409;48.858;21.906;2022-08-01T08:17:46;98339.16;;;24.82;48.15
57574;BME280;43409;48.858;21.906;2022-08-01T08:20:12;98341.78;;;24.88;48.11
57574;BME280;43409;48.858;21.906;2022-08-01T08:22:37;98340.97;;;24.92;48.08
57574;BME280;43409;48.858;21.906;2022-08-01T08:25:03;98338.50;;;24.96;47.97
57574;BME280;43409;48.858;21.906;2022-08-01T08:27:28;98346.47;;;25.06;47.90
57574;BME280;43409;48.858;21.906;2022-08-01T08:29:55;98344.28;;;25.13;47.83
57574;BME280;43409;48.858;21.906;2022-08-01T08:32:20;98340.19;;;25.21;47.62
57574;BME280;43409;48.858;21.906;2022-08-01T08:34:46;98342.53;;;25.28;47.69
57574;BME280;43409;48.858;21.906;2022-08-01T08:37:11;98337.66;;;25.35;47.13
57574;BME280;43409;48.858;21.906;2022-08-01T08:39:37;98343.53;;;25.37;47.18
57574;BME280;43409;48.858;21.906;2022-08-01T08:42:06;98348.34;;;25.40;47.51
57574;BME280;43409;48.858;21.906;2022-08-01T08:44:31;98350.47;;;25.43;47.48
57574;BME280;43409;48.858;21.906;2022-08-01T08:47:01;98358.50;;;25.43;47.17
57574;BME280;43409;48.858;21.906;2022-08-01T08:49:28;98358.50;;;25.43;47.18
57574;BME280;43409;48.858;21.906;2022-08-01T08:51:58;98361.19;;;25.43;47.12
57574;BME280;43409;48.858;21.906;2022-08-01T08:54:24;98366.84;;;25.42;47.13
57574;BME280;43409;48.858;21.906;2022-08-01T08:56:51;98363.88;;;25.43;47.40
57574;BME280;43409;48.858;21.906;2022-08-01T08:59:17;98367.06;;;25.45;47.15
57574;BME280;43409;48.858;21.906;2022-08-01T09:01:43;98363.88;;;25.43;47.16
57574;BME280;43409;48.858;21.906;2022-08-01T09:04:09;98363.38;;;25.41;46.78
57574;BME280;43409;48.858;21.906;2022-08-01T09:06:35;98374.06;;;25.46;47.25
57574;BME280;43409;48.858;21.906;2022-08-01T09:09:01;98375.09;;;25.50;47.07
57574;BME280;43409;48.858;21.906;2022-08-01T09:11:29;98376.69;;;25.51;47.07
57574;BME280;43409;48.858;21.906;2022-08-01T09:16:41;98371.84;;;25.53;47.11
57574;BME280;43409;48.858;21.906;2022-08-01T09:19:09;98367.53;;;25.52;47.14
57574;BME280;43409;48.858;21.906;2022-08-01T09:21:35;98372.91;;;25.52;46.96
57574;BME280;43409;48.858;21.906;2022-08-01T09:24:00;98364.88;;;25.52;46.87
57574;BME280;43409;48.858;21.906;2022-08-01T09:26:33;98375.81;;;25.56;46.98
57574;BME280;43409;48.858;21.906;2022-08-01T09:28:59;98366.41;;;25.59;46.82
57574;BME280;43409;48.858;21.906;2022-08-01T09:31:27;98367.19;;;25.59;46.71
57574;BME280;43409;48.858;21.906;2022-08-01T09:33:58;98366.75;;;25.52;47.00
57574;BME280;43409;48.858;21.906;2022-08-01T09:36:25;98365.94;;;25.51;46.99
57574;BME280;43409;48.858;21.906;2022-08-01T09:38:53;98371.84;;;25.53;46.50
57574;BME280;43409;48.858;21.906;2022-08-01T09:41:31;98370.47;;;25.56;46.87
57574;BME280;43409;48.858;21.906;2022-08-01T09:43:57;98368.13;;;25.49;46.54
57574;BME280;43409;48.858;21.906;2022-08-01T09:46:23;98370.81;;;25.49;46.63
57574;BME280;43409;48.858;21.906;2022-08-01T09:49:01;98372.22;;;25.42;46.60
57574;BME280;43409;48.858;21.906;2022-08-01T09:51:32;98378.28;;;25.52;46.62
57574;BME280;43409;48.858;21.906;2022-08-01T09:53:59;98383.66;;;25.52;46.30
57574;BME280;43409;48.858;21.906;2022-08-01T09:56:25;98386.28;;;25.58;46.71
57574;BME280;43409;48.858;21.906;2022-08-01T09:58:58;98382.09;;;25.46;46.45
57574;BME280;43409;48.858;21.906;2022-08-01T10:01:24;98383.16;;;25.50;46.26
57574;BME280;43409;48.858;21.906;2022-08-01T10:04:07;98376.09;;;25.54;46.30
57574;BME280;43409;48.858;21.906;2022-08-01T10:06:33;98374.06;;;25.46;46.27
57574;BME280;43409;48.858;21.906;2022-08-01T10:08:58;98375.25;;;25.59;46.14
57574;BME280;43409;48.858;21.906;2022-08-01T10:11:24;98379.84;;;25.59;46.26
57574;BME280;43409;48.858;21.906;2022-08-01T10:13:49;98380.91;;;25.58;46.59
57574;BME280;43409;48.858;21.906;2022-08-01T10:16:15;98373.13;;;25.56;46.49
57574;BME280;43409;48.858;21.906;2022-08-01T10:18:41;98371.78;;;25.59;45.64
57574;BME280;43409;48.858;21.906;2022-08-01T10:21:08;98373.97;;;25.57;45.91
57574;BME280;43409;48.858;21.906;2022-08-01T10:23:36;98377.72;;;25.55;46.20
57574;BME280;43409;48.858;21.906;2022-08-01T10:26:05;98363.38;;;25.41;46.12
57574;BME280;43409;48.858;21.906;2022-08-01T10:28:31;98366.50;;;25.48;46.04
57574;BME280;43409;48.858;21.906;2022-08-01T10:31:00;98359.50;;;25.52;46.10
57574;BME280;43409;48.858;21.906;2022-08-01T10:33:25;98376.00;;;25.65;45.51
57574;BME280;43409;48.858;21.906;2022-08-01T10:35:51;98366.47;;;25.53;45.48
57574;BME280;43409;48.858;21.906;2022-08-01T10:38:17;98359.88;;;25.41;45.36
57574;BME280;43409;48.858;21.906;2022-08-01T10:40:43;98360.13;;;25.44;45.04
57574;BME280;43409;48.858;21.906;2022-08-01T10:43:10;98360.16;;;25.39;44.98
57574;BME280;43409;48.858;21.906;2022-08-01T10:45:36;98360.97;;;25.40;44.37
57574;BME280;43409;48.858;21.906;2022-08-01T10:51:02;98355.25;;;25.46;43.72
57574;BME280;43409;48.858;21.906;2022-08-01T10:53:28;98362.81;;;25.44;43.36
57574;BME280;43409;48.858;21.906;2022-08-01T10:58:32;98361.91;;;25.54;43.33
57574;BME280;43409;48.858;21.906;2022-08-01T11:01:21;98350.66;;;25.52;43.40
57574;BME280;43409;48.858;21.906;2022-08-01T11:06:39;98361.13;;;25.48;43.03
57574;BME280;43409;48.858;21.906;2022-08-01T11:14:30;98349.78;;;25.57;43.51
57574;BME280;43409;48.858;21.906;2022-08-01T11:16:55;98355.66;;;25.59;42.83
57574;BME280;43409;48.858;21.906;2022-08-01T11:19:21;98355.66;;;25.59;43.28
57574;BME280;43409;48.858;21.906;2022-08-01T11:29:40;98351.09;;;25.59;43.18
57574;BME280;43409;48.858;21.906;2022-08-01T11:32:25;98338.41;;;25.65;43.63
57574;BME280;43409;48.858;21.906;2022-08-01T11:34:53;98334.31;;;25.72;43.91
57574;BME280;43409;48.858;21.906;2022-08-01T11:37:26;98331.13;;;25.70;43.83
57574;BME280;43409;48.858;21.906;2022-08-01T11:42:46;98336.25;;;25.67;44.39
57574;BME280;43409;48.858;21.906;2022-08-01T11:45:12;98338.41;;;25.65;44.28
57574;BME280;43409;48.858;21.906;2022-08-01T11:47:50;98338.59;;;25.73;44.28
57574;BME280;43409;48.858;21.906;2022-08-01T11:52:58;98332.38;;;25.78;44.32
57574;BME280;43409;48.858;21.906;2022-08-01T11:55:24;98333.94;;;25.79;44.00
57574;BME280;43409;48.858;21.906;2022-08-01T11:57:59;98338.81;;;25.77;44.22
57574;BME280;43409;48.858;21.906;2022-08-01T12:00:24;98334.59;;;25.71;44.25
57574;BME280;43409;48.858;21.906;2022-08-01T12:03:07;98328.00;;;25.82;44.23
57574;BME280;43409;48.858;21.906;2022-08-01T12:05:34;98326.06;;;25.88;43.96
57574;BME280;43409;48.858;21.906;2022-08-01T12:08:02;98319.09;;;25.87;43.22
57574;BME280;43409;48.858;21.906;2022-08-01T12:10:30;98318.22;;;25.91;42.98
57574;BME280;43409;48.858;21.906;2022-08-01T12:13:04;98323.03;;;25.95;42.58
57574;BME280;43409;48.858;21.906;2022-08-01T12:15:35;98322.53;;;25.92;42.05
57574;BME280;43409;48.858;21.906;2022-08-01T12:18:03;98323.31;;;25.93;42.49
57574;BME280;43409;48.858;21.906;2022-08-01T12:20:37;98316.13;;;25.88;42.19
57574;BME280;43409;48.858;21.906;2022-08-01T12:23:08;98310.16;;;25.91;42.18
57574;BME280;43409;48.858;21.906;2022-08-01T12:25:35;98310.75;;;25.88;41.18
57574;BME280;43409;48.858;21.906;2022-08-01T12:28:03;98309.59;;;25.95;40.80
57574;BME280;43409;48.858;21.906;2022-08-01T12:30:30;98308.50;;;25.96;39.93
57574;BME280;43409;48.858;21.906;2022-08-01T12:32:57;98327.91;;;25.92;39.23
57574;BME280;43409;48.858;21.906;2022-08-01T12:35:24;98295.56;;;25.79;37.91
57574;BME280;43409;48.858;21.906;2022-08-01T12:37:58;98306.09;;;25.75;38.08
57574;BME280;43409;48.858;21.906;2022-08-01T12:40:26;98301.16;;;25.82;37.85
57574;BME280;43409;48.858;21.906;2022-08-01T12:42:56;98310.88;;;25.78;37.99
57574;BME280;43409;48.858;21.906;2022-08-01T12:45:26;98301.22;;;25.77;37.74
57574;BME280;43409;48.858;21.906;2022-08-01T12:47:53;98300.00;;;25.88;37.55
57574;BME280;43409;48.858;21.906;2022-08-01T12:50:23;98304.06;;;25.86;37.39
57574;BME280;43409;48.858;21.906;2022-08-01T12:52:50;98295.19;;;25.85;37.44
57574;BME280;43409;48.858;21.906;2022-08-01T12:55:20;98298.91;;;25.89;37.70
57574;BME280;43409;48.858;21.906;2022-08-01T12:57:50;98301.59;;;25.89;37.48
57574;BME280;43409;48.858;21.906;2022-08-01T13:00:17;98306.97;;;25.89;37.58
57574;BME280;43409;48.858;21.906;2022-08-01T13:02:45;98306.97;;;25.89;38.07
57574;BME280;43409;48.858;21.906;2022-08-01T13:05:11;98302.69;;;25.88;38.12
57574;BME280;43409;48.858;21.906;2022-08-01T13:07:47;98295.38;;;25.94;38.14
57574;BME280;43409;48.858;21.906;2022-08-01T13:10:14;98306.06;;;25.99;38.27
57574;BME280;43409;48.858;21.906;2022-08-01T13:12:41;98307.97;;;25.99;38.32
57574;BME280;43409;48.858;21.906;2022-08-01T13:15:20;98301.50;;;26.00;38.68
57574;BME280;43409;48.858;21.906;2022-08-01T13:17:46;98297.25;;;25.94;38.47
57574;BME280;43409;48.858;21.906;2022-08-01T13:20:21;98300.25;;;25.92;38.38
57574;BME280;43409;48.858;21.906;2022-08-01T13:22:47;98304.22;;;25.95;38.31
57574;BME280;43409;48.858;21.906;2022-08-01T13:25:13;98300.13;;;26.02;38.42
57574;BME280;43409;48.858;21.906;2022-08-01T13:27:39;98299.81;;;26.04;38.41
57574;BME280;43409;48.858;21.906;2022-08-01T13:33:28;98296.72;;;25.91;38.51
57574;BME280;43409;48.858;21.906;2022-08-01T13:36:06;98300.94;;;26.03;38.45